Time;durP1;ratioP1;P1;durP2;ratioP2;P2;SDS_P1;SDS_P2;PMS_P1;PMS_P2;Temp;Humidity;BMP_temperature;BMP_pressure;BME280_temperature;BME280_humidity;BME280_pressure;Samples;Min_cycle;Max_cycle;Signal;HPM_P1;HPM_P2
2021/10/17 00:01:39;;;;;;;15.60;10.00;;;3.60;99.90;;;4.99;100.00;101019.28;6097453;23;20010;-84
2021/10/17 00:04:05;;;;;;;17.38;9.75;;;3.60;99.90;;;5.02;100.00;101016.69;6071944;23;20081;-83
2021/10/17 00:06:31;;;;;;;16.92;9.77;;;3.60;99.90;;;4.97;100.00;101016.00;6107916;23;20089;-84
2021/10/17 00:08:57;;;;;;;19.98;9.05;;;3.50;99.90;;;4.92;100.00;101013.34;6112815;23;20499;-84
2021/10/17 00:11:24;;;;;;;19.67;10.88;;;3.50;99.90;;;4.91;100.00;101012.53;6076286;23;20011;-87
2021/10/17 00:13:51;;;;;;;20.00;9.90;;;3.50;99.90;;;4.94;100.00;101013.88;6072022;23;20014;-81
2021/10/17 00:16:19;;;;;;;22.30;10.73;;;3.50;99.90;;;5.00;100.00;101010.66;6102464;23;20010;-85
2021/10/17 00:18:46;;;;;;;19.92;9.30;;;3.60;99.90;;;5.11;100.00;101011.22;6085762;23;20392;-85
2021/10/17 00:21:12;;;;;;;23.38;10.27;;;3.60;99.90;;;5.19;100.00;101019.63;6081587;23;20007;-84
2021/10/17 00:23:38;;;;;;;21.65;10.02;;;3.70;99.90;;;5.36;100.00;101018.94;6071819;23;20014;-85
2021/10/17 00:26:04;;;;;;;17.15;10.50;;;3.90;99.90;;;5.45;100.00;101024.53;6084095;23;20018;-83
2021/10/17 00:28:30;;;;;;;22.08;11.50;;;4.00;99.90;;;5.47;100.00;101023.09;6089733;23;20006;-84
2021/10/17 00:30:56;;;;;;;25.48;9.90;;;4.00;99.90;;;5.52;100.00;101022.16;6074769;23;20011;-84
2021/10/17 00:35:52;;;;;;;19.88;9.15;;;4.10;99.90;;;5.55;100.00;101027.88;6106972;23;20033;-83
2021/10/17 00:38:18;;;;;;;18.98;9.45;;;4.10;99.90;;;5.52;100.00;101030.47;6080741;23;20021;-82
2021/10/17 00:40:45;;;;;;;17.25;9.63;;;4.10;99.90;;;5.53;100.00;101024.59;6080091;23;20007;-84
2021/10/17 00:43:11;;;;;;;18.67;9.50;;;4.00;99.90;;;5.48;100.00;101033.06;6104741;23;20014;-81
2021/10/17 00:45:37;;;;;;;20.55;10.18;;;4.00;99.90;;;5.44;100.00;101022.91;6080205;23;20006;-84
2021/10/17 00:48:04;;;;;;;29.05;10.48;;;4.00;99.90;;;5.37;100.00;101022.50;6112825;23;20049;-81
2021/10/17 00:50:31;;;;;;;23.00;11.07;;;4.00;99.90;;;5.37;100.00;101016.97;6111476;23;20010;-85
2021/10/17 00:52:58;;;;;;;25.65;10.65;;;4.10;99.90;;;5.45;100.00;101021.78;6111965;23;20010;-80
2021/10/17 00:55:28;;;;;;;22.17;9.60;;;4.10;99.90;;;5.52;100.00;101013.84;6115262;23;20013;-81
2021/10/17 00:57:55;;;;;;;21.92;10.90;;;4.10;99.90;;;5.45;100.00;101017.06;6116412;23;20038;-83
2021/10/17 01:00:21;;;;;;;25.23;9.60;;;4.20;99.90;;;5.50;100.00;101021.63;6091195;23;20011;-80
2021/10/17 01:02:47;;;;;;;21.55;10.02;;;4.10;99.90;;;5.48;100.00;101021.97;6110168;23;20062;-80
2021/10/17 01:05:15;;;;;;;18.48;9.93;;;4.10;99.90;;;5.48;100.00;101010.06;6084855;23;20116;-85
2021/10/17 01:07:43;;;;;;;21.42;9.90;;;4.10;99.90;;;5.46;100.00;101013.13;6089141;23;20010;-82
2021/10/17 01:10:09;;;;;;;19.35;9.15;;;4.00;99.90;;;5.45;100.00;101010.69;6066655;23;20078;-83
2021/10/17 01:12:36;;;;;;;19.73;9.80;;;4.00;99.90;;;5.43;100.00;101011.00;6089064;23;20014;-84
2021/10/17 01:15:04;;;;;;;16.65;8.73;;;4.00;99.90;;;5.40;100.00;101016.34;6114555;23;20010;-81
2021/10/17 01:17:33;;;;;;;22.77;10.32;;;3.90;99.90;;;5.37;100.00;101005.91;6114565;23;20332;-81
2021/10/17 01:19:59;;;;;;;21.33;10.23;;;3.90;99.90;;;5.31;100.00;101013.53;6089567;23;20417;-82
2021/10/17 01:22:26;;;;;;;17.77;9.32;;;3.90;99.90;;;5.29;100.00;101007.50;6115757;23;20013;-83
2021/10/17 01:24:53;;;;;;;27.88;10.95;;;3.90;99.90;;;5.24;100.00;101008.41;6116199;23;19991;-84
2021/10/17 01:27:20;;;;;;;19.80;9.40;;;3.80;99.90;;;5.21;100.00;101008.22;6117567;23;20042;-82
2021/10/17 01:29:49;;;;;;;21.83;9.80;;;3.80;99.90;;;5.15;100.00;101007.53;6092404;23;20007;-82
2021/10/17 01:32:15;;;;;;;18.20;9.65;;;3.70;99.90;;;5.13;100.00;101011.75;6116414;23;20010;-84
2021/10/17 01:34:42;;;;;;;19.98;8.68;;;3.70;99.90;;;5.08;100.00;101009.91;6116515;23;20031;-83
2021/10/17 01:37:08;;;;;;;14.60;9.73;;;3.70;99.90;;;5.05;100.00;101002.22;6117682;23;20013;-84
2021/10/17 01:39:34;;;;;;;18.85;8.80;;;3.60;99.90;;;5.03;100.00;101004.50;6117029;23;20006;-82
2021/10/17 01:42:00;;;;;;;18.30;10.32;;;3.60;99.90;;;5.02;100.00;101005.63;6117611;23;20026;-83
2021/10/17 01:44:33;;;;;;;18.02;9.45;;;3.60;99.90;;;5.02;100.00;101004.81;6117886;23;20021;-82
2021/10/17 01:47:00;;;;;;;20.33;9.25;;;3.60;99.90;;;5.03;100.00;101003.69;6091978;23;20222;-84
2021/10/17 01:49:27;;;;;;;15.95;9.32;;;3.60;99.90;;;5.01;100.00;100994.88;6117813;23;20018;-81
2021/10/17 01:51:52;;;;;;;14.43;8.57;;;3.60;99.90;;;5.00;100.00;100990.47;6117202;23;20062;-83
2021/10/17 01:54:18;;;;;;;20.00;9.52;;;3.60;99.90;;;4.92;100.00;100989.25;6116509;23;20013;-82
2021/10/17 01:56:45;;;;;;;17.65;9.70;;;3.50;99.90;;;4.92;100.00;100992.03;6090646;23;20010;-83
2021/10/17 01:59:11;;;;;;;14.10;9.15;;;3.50;99.90;;;4.90;100.00;100991.53;6116738;23;20006;-82
2021/10/17 02:01:37;;;;;;;16.70;8.75;;;3.50;99.90;;;4.93;100.00;100988.13;6115817;23;20010;-83
2021/10/17 02:04:04;;;;;;;16.08;8.70;;;3.50;99.90;;;4.95;100.00;100991.38;6091368;23;20002;-83
2021/10/17 02:06:31;;;;;;;18.25;9.13;;;3.50;99.90;;;4.95;100.00;100985.84;6116100;23;20026;-81
2021/10/17 02:08:57;;;;;;;17.10;9.57;;;3.50;99.90;;;4.94;100.00;100975.13;6116177;23;20006;-81
2021/10/17 02:11:23;;;;;;;19.90;9.55;;;3.50;99.90;;;4.93;100.00;100988.13;6115579;23;20006;-82
2021/10/17 02:13:50;;;;;;;20.30;9.45;;;3.50;99.90;;;4.97;100.00;100978.06;6089926;23;20030;-83
2021/10/17 02:16:16;;;;;;;19.20;9.63;;;3.50;99.90;;;4.96;100.00;100968.13;6116125;23;20006;-84
2021/10/17 02:18:42;;;;;;;15.90;9.30;;;3.60;99.90;;;4.97;100.00;100966.19;6114778;23;20017;-80
2021/10/17 02:21:09;;;;;;;19.00;9.40;;;3.60;99.90;;;5.03;100.00;100967.69;6088273;23;20376;-84
2021/10/17 02:23:35;;;;;;;19.33;9.07;;;3.60;99.90;;;5.08;100.00;100968.38;6114985;23;20027;-83
2021/10/17 02:26:01;;;;;;;22.05;10.30;;;3.70;99.90;;;5.13;100.00;100959.97;6090148;23;20049;-82
2021/10/17 02:28:27;;;;;;;18.77;9.07;;;3.70;99.90;;;5.16;100.00;100964.06;6115316;23;20061;-84
2021/10/17 02:30:53;;;;;;;17.08;10.18;;;3.70;99.90;;;5.14;100.00;100958.81;6087789;23;20010;-82
2021/10/17 02:33:19;;;;;;;19.33;9.60;;;3.80;99.90;;;5.20;100.00;100965.84;6109672;23;20010;-83
2021/10/17 02:35:45;;;;;;;18.75;9.35;;;3.80;99.90;;;5.27;100.00;100959.88;6111114;23;20014;-80
2021/10/17 02:38:11;;;;;;;22.70;9.25;;;3.80;99.90;;;5.36;100.00;100969.09;6111778;23;20033;-81
2021/10/17 02:40:37;;;;;;;18.50;9.85;;;3.90;99.90;;;5.34;100.00;100965.81;6110120;23;20090;-81
2021/10/17 02:43:03;;;;;;;17.92;8.55;;;3.90;99.90;;;5.32;100.00;100965.31;6084976;23;20002;-79
2021/10/17 02:45:29;;;;;;;22.48;10.32;;;4.00;99.90;;;5.42;100.00;100953.16;6111327;23;20034;-81
2021/10/17 02:47:55;;;;;;;17.38;9.13;;;4.10;99.90;;;5.53;100.00;100958.09;6114144;23;20016;-83
2021/10/17 02:50:21;;;;;;;23.00;10.07;;;4.20;99.90;;;5.62;100.00;100956.19;6115138;23;20031;-82
2021/10/17 02:52:47;;;;;;;17.08;8.88;;;4.30;99.90;;;5.71;100.00;100959.03;6113989;23;20006;-82
2021/10/17 02:55:13;;;;;;;19.80;10.10;;;4.30;99.90;;;5.74;100.00;100952.84;6112342;23;20010;-83
2021/10/17 02:57:39;;;;;;;19.33;9.23;;;4.40;99.90;;;5.80;100.00;100943.25;6113470;23;20006;-82
2021/10/17 03:00:06;;;;;;;22.08;8.88;;;4.50;99.90;;;5.92;100.00;100940.72;6112516;23;20030;-82
2021/10/17 03:02:32;;;;;;;19.85;9.40;;;4.60;99.90;;;6.03;100.00;100939.31;6113775;23;20041;-81
2021/10/17 03:04:58;;;;;;;20.73;9.18;;;4.70;99.90;;;6.12;100.00;100942.94;6087303;23;20365;-81
2021/10/17 03:07:24;;;;;;;21.90;8.85;;;4.70;99.90;;;6.20;100.00;100939.34;6113245;23;20017;-81
2021/10/17 03:09:50;;;;;;;24.83;9.38;;;4.90;99.90;;;6.24;100.00;100931.22;6114275;23;20069;-82
2021/10/17 03:12:15;;;;;;;17.58;8.40;;;4.90;99.90;;;6.31;100.00;100942.66;6114642;23;20006;-82
2021/10/17 03:14:41;;;;;;;11.32;7.82;;;5.00;99.90;;;6.44;100.00;100938.09;6088504;23;20022;-82
2021/10/17 03:17:07;;;;;;;20.58;8.90;;;5.10;99.90;;;6.45;100.00;100939.75;6114062;23;20063;-83
2021/10/17 03:19:33;;;;;;;18.02;8.75;;;5.20;99.90;;;6.45;100.00;100936.97;6087169;23;20025;-82
2021/10/17 03:21:59;;;;;;;18.83;8.88;;;5.20;99.90;;;6.53;100.00;100936.16;6113477;23;20010;-82
2021/10/17 03:24:25;;;;;;;16.92;8.43;;;5.30;99.90;;;6.58;100.00;100936.03;6113214;23;20061;-81
2021/10/17 03:26:51;;;;;;;19.00;8.07;;;5.30;99.90;;;6.70;100.00;100933.41;6114261;23;20508;-80
2021/10/17 03:29:17;;;;;;;15.50;8.18;;;5.30;99.90;;;6.85;100.00;100953.19;6113612;23;20034;-82
2021/10/17 03:31:43;;;;;;;16.17;7.07;;;5.40;99.90;;;6.94;99.46;100952.34;6116143;23;20032;-80
2021/10/17 03:34:10;;;;;;;15.68;8.13;;;5.40;99.90;;;7.00;99.72;100953.84;6090586;23;20018;-81
2021/10/17 03:36:36;;;;;;;16.30;7.95;;;5.40;99.90;;;7.03;99.73;100954.00;6116127;23;20093;-80
2021/10/17 03:39:04;;;;;;;16.13;8.38;;;5.50;99.90;;;6.90;100.00;100953.00;6115419;23;20038;-83
2021/10/17 03:41:29;;;;;;;16.95;7.95;;;5.50;99.90;;;6.87;99.88;100945.34;6065395;23;20117;-83
2021/10/17 03:43:55;;;;;;;16.30;8.43;;;5.40;99.90;;;6.82;100.00;100944.69;6114280;23;20034;-81
2021/10/17 03:46:22;;;;;;;19.38;7.90;;;5.40;99.90;;;6.91;99.82;100948.28;6114170;23;20003;-82
2021/10/17 03:48:48;;;;;;;15.32;8.23;;;5.40;99.90;;;6.97;99.14;100944.19;6090040;23;20086;-81
2021/10/17 03:51:14;;;;;;;18.73;8.13;;;5.50;99.90;;;7.05;98.91;100951.72;6090025;23;20005;-81
2021/10/17 03:53:40;;;;;;;15.73;7.40;;;5.50;99.90;;;7.10;98.76;100948.75;6116523;23;20074;-81
2021/10/17 03:56:06;;;;;;;15.10;7.63;;;5.50;99.90;;;7.11;98.69;100944.03;6115458;23;20018;-81
2021/10/17 03:58:33;;;;;;;20.52;8.07;;;5.50;99.90;;;7.08;98.97;100950.25;6115787;23;20007;-79
2021/10/17 04:00:59;;;;;;;13.20;7.28;;;5.50;99.90;;;6.90;99.51;100941.13;6115245;23;20002;-83
2021/10/17 04:03:24;;;;;;;19.73;9.13;;;5.50;99.90;;;6.96;99.54;100944.53;6089220;23;20011;-82
2021/10/17 04:05:50;;;;;;;16.75;7.45;;;5.50;99.90;;;7.00;99.35;100946.31;6090062;23;20050;-82
2021/10/17 04:08:16;;;;;;;14.38;7.93;;;5.50;99.90;;;6.94;99.51;100936.50;6114519;23;20014;-83
2021/10/17 04:10:42;;;;;;;19.63;8.35;;;5.50;99.90;;;6.92;99.64;100929.66;6112375;23;20006;-80
2021/10/17 04:13:08;;;;;;;21.05;8.85;;;5.60;99.90;;;6.94;100.00;100925.41;6090032;23;20010;-82
2021/10/17 04:15:36;;;;;;;16.20;7.88;;;5.50;99.90;;;6.86;100.00;100917.91;6092693;23;20021;-81
2021/10/17 04:18:03;;;;;;;15.02;8.48;;;5.50;99.90;;;6.97;100.00;100915.63;6077413;23;20405;-83
2021/10/17 04:20:29;;;;;;;15.77;7.70;;;5.50;99.90;;;7.15;99.74;100929.16;6053627;23;20529;-83
2021/10/17 04:22:55;;;;;;;21.42;8.43;;;5.60;99.90;;;7.22;99.18;100932.28;6103605;23;20011;-82
2021/10/17 04:25:21;;;;;;;15.50;6.93;;;5.60;99.90;;;7.26;98.95;100946.28;6078321;23;20031;-82
2021/10/17 04:27:48;;;;;;;15.48;7.25;;;5.70;99.90;;;7.27;99.49;100940.44;6114646;23;20010;-82
2021/10/17 04:30:16;;;;;;;16.67;7.72;;;5.70;99.90;;;7.27;99.82;100934.03;6112693;23;20010;-80
2021/10/17 04:32:42;;;;;;;15.52;7.97;;;5.70;99.90;;;7.19;99.96;100938.47;6079694;23;20014;-84
2021/10/17 04:35:09;;;;;;;17.65;7.10;;;5.70;99.90;;;7.27;99.88;100939.59;6113051;23;19998;-81
2021/10/17 04:37:38;;;;;;;14.32;7.50;;;5.70;99.90;;;7.33;99.84;100947.44;6114512;23;20105;-80
2021/10/17 04:40:09;;;;;;;18.55;7.35;;;5.80;99.90;;;7.34;99.90;100942.69;6090834;23;20006;-83
2021/10/17 04:42:36;;;;;;;12.68;7.82;;;5.80;99.90;;;7.35;99.98;100939.56;6108384;23;20013;-78
2021/10/17 04:45:08;;;;;;;15.30;7.30;;;5.80;99.90;;;7.36;100.00;100949.56;6090018;23;20233;-83
2021/10/17 04:47:34;;;;;;;14.55;7.80;;;5.80;99.90;;;7.37;100.00;100947.59;6090174;23;20021;-82
2021/10/17 04:50:00;;;;;;;15.82;7.63;;;5.90;99.90;;;7.41;100.00;100948.59;6114014;23;20063;-80
2021/10/17 04:52:26;;;;;;;14.98;8.07;;;5.80;99.90;;;7.43;100.00;100949.88;6112804;23;20496;-83
2021/10/17 04:54:52;;;;;;;13.70;7.70;;;5.80;99.90;;;7.40;100.00;100944.97;6115546;23;20006;-83
2021/10/17 04:57:18;;;;;;;15.27;6.82;;;5.80;99.90;;;7.45;100.00;100954.31;6090657;23;20014;-81
2021/10/17 04:59:44;;;;;;;14.73;6.30;;;5.90;99.90;;;7.47;100.00;100961.16;6113998;23;20085;-82
2021/10/17 05:02:09;;;;;;;14.93;6.80;;;5.90;99.90;;;7.48;100.00;100962.78;6110038;23;20014;-82
2021/10/17 05:04:38;;;;;;;12.75;7.00;;;5.90;99.90;;;7.50;100.00;100959.66;6108830;23;20321;-80
2021/10/17 05:07:04;;;;;;;14.45;6.97;;;5.90;99.90;;;7.51;100.00;100951.03;6115905;23;20007;-81
2021/10/17 05:09:31;;;;;;;14.35;7.38;;;5.90;99.90;;;7.54;100.00;100947.56;6114798;23;20327;-84
2021/10/17 05:11:57;;;;;;;13.70;7.03;;;5.90;99.90;;;7.56;100.00;100953.59;6090144;23;20014;-82
2021/10/17 05:14:23;;;;;;;11.65;6.97;;;5.90;99.90;;;7.55;100.00;100957.53;6086429;23;20021;-82
2021/10/17 05:16:49;;;;;;;11.32;6.57;;;5.90;99.90;;;7.55;100.00;100965.03;6107333;23;20022;-83
2021/10/17 05:19:15;;;;;;;15.32;7.35;;;6.00;99.90;;;7.56;100.00;100953.59;6107716;23;20203;-81
2021/10/17 05:21:41;;;;;;;14.02;6.75;;;5.90;99.90;;;7.56;100.00;100959.16;6086347;23;20034;-83
2021/10/17 05:24:07;;;;;;;12.02;6.32;;;5.90;99.90;;;7.58;100.00;100956.88;6109971;23;20006;-82
2021/10/17 05:26:33;;;;;;;12.48;7.47;;;6.00;99.90;;;7.59;100.00;100958.50;6084580;23;20007;-84
2021/10/17 05:28:59;;;;;;;11.02;6.03;;;6.00;99.90;;;7.61;100.00;100956.19;6084483;23;20010;-81
2021/10/17 05:31:25;;;;;;;9.23;6.00;;;6.00;99.90;;;7.61;100.00;100953.41;6113727;23;20079;-84
2021/10/17 05:33:51;;;;;;;13.57;6.90;;;6.00;99.90;;;7.66;100.00;100963.56;6086504;23;20014;-79
2021/10/17 05:36:17;;;;;;;13.45;6.72;;;6.00;99.90;;;7.67;100.00;100967.97;6085634;23;20006;-81
2021/10/17 05:38:43;;;;;;;10.13;6.10;;;6.10;99.90;;;7.70;100.00;100964.53;6085644;23;20074;-83
2021/10/17 05:41:09;;;;;;;12.93;6.60;;;6.10;99.90;;;7.72;100.00;100970.56;6113748;23;20348;-82
2021/10/17 05:43:35;;;;;;;13.23;7.47;;;6.10;99.90;;;7.71;100.00;100972.53;6088896;23;20009;-84
2021/10/17 05:46:02;;;;;;;13.50;7.65;;;6.10;99.90;;;7.69;100.00;100968.47;6115473;23;20002;-81
2021/10/17 05:48:28;;;;;;;14.55;7.32;;;6.10;99.90;;;7.35;100.00;100964.59;6114008;23;20467;-82
2021/10/17 05:50:54;;;;;;;13.55;6.68;;;6.10;99.90;;;7.29;100.00;100971.47;6085371;23;20014;-81
2021/10/17 05:53:20;;;;;;;9.48;6.60;;;6.20;99.90;;;7.28;100.00;100974.59;6083188;23;20007;-84
2021/10/17 05:55:46;;;;;;;15.13;7.40;;;6.10;99.90;;;7.19;100.00;100976.56;6083274;23;20010;-84
2021/10/17 05:58:11;;;;;;;13.15;7.55;;;6.10;99.90;;;7.23;100.00;100978.34;6114514;23;20030;-82
2021/10/17 06:00:37;;;;;;;13.18;7.00;;;6.10;99.90;;;7.26;100.00;100965.75;6083467;23;20010;-81
2021/10/17 06:03:03;;;;;;;8.27;6.63;;;6.20;99.90;;;7.29;100.00;100981.75;6083738;23;20006;-81
2021/10/17 06:05:29;;;;;;;14.13;7.15;;;6.20;99.90;;;7.30;100.00;100975.06;6109361;23;20006;-83
2021/10/17 06:07:56;;;;;;;15.27;7.30;;;6.20;99.90;;;7.34;100.00;100976.88;6108628;23;20006;-82
2021/10/17 06:10:22;;;;;;;15.75;8.05;;;6.20;99.90;;;7.29;100.00;100973.41;6108347;23;20511;-82
2021/10/17 06:12:49;;;;;;;16.63;7.35;;;6.20;99.90;;;7.26;100.00;100976.84;6109223;23;20010;-82
2021/10/17 06:15:15;;;;;;;17.48;8.35;;;6.20;99.90;;;7.29;100.00;100978.97;6083061;23;20006;-82
2021/10/17 06:17:41;;;;;;;17.30;7.72;;;6.20;99.90;;;7.31;100.00;100985.03;6112095;23;20449;-81
2021/10/17 06:20:07;;;;;;;13.25;7.97;;;6.20;99.90;;;7.31;100.00;100988.63;6083275;23;20018;-81
2021/10/17 06:22:33;;;;;;;16.38;7.68;;;6.30;99.90;;;7.27;100.00;100978.50;6088125;23;20006;-84
2021/10/17 06:24:59;;;;;;;12.90;8.15;;;6.20;99.90;;;7.32;100.00;100987.47;6114048;23;20003;-83
2021/10/17 06:27:25;;;;;;;14.07;7.50;;;6.30;99.90;;;7.37;100.00;100990.09;6113732;23;20035;-85
2021/10/17 06:29:51;;;;;;;15.02;7.70;;;6.30;99.90;;;7.40;100.00;100999.75;6112042;23;20034;-82
2021/10/17 06:32:17;;;;;;;16.67;8.55;;;6.30;99.90;;;7.42;100.00;100994.66;6108926;23;20014;-82
2021/10/17 06:34:42;;;;;;;15.27;8.50;;;6.40;99.90;;;7.45;100.00;100991.22;6081446;23;20011;-83
2021/10/17 06:37:08;;;;;;;17.27;8.45;;;6.40;99.90;;;7.42;100.00;100998.25;6074964;23;20007;-82
2021/10/17 06:39:34;;;;;;;17.90;8.48;;;6.40;99.90;;;7.43;100.00;100996.31;6075101;23;20093;-83
2021/10/17 06:42:00;;;;;;;15.38;7.63;;;6.40;99.90;;;7.46;100.00;100990.09;6100802;23;20034;-83
2021/10/17 06:44:26;;;;;;;17.70;7.65;;;6.40;99.90;;;7.55;100.00;100998.41;6074262;23;20014;-83
2021/10/17 06:46:52;;;;;;;13.93;6.93;;;6.40;99.90;;;7.60;100.00;100995.47;6075152;23;20435;-83
2021/10/17 06:49:18;;;;;;;15.52;8.13;;;6.50;99.90;;;7.67;100.00;100993.81;6098650;23;20019;-81
2021/10/17 06:51:45;;;;;;;14.50;8.18;;;6.50;99.90;;;7.73;100.00;101008.38;6075310;23;20064;-84
2021/10/17 06:54:10;;;;;;;10.80;6.68;;;6.60;99.90;;;7.81;100.00;101007.50;6099647;23;20006;-80
2021/10/17 06:56:36;;;;;;;13.98;7.45;;;6.70;99.90;;;7.86;100.00;101002.59;6100590;23;20006;-83
2021/10/17 06:59:03;;;;;;;13.25;7.22;;;6.70;99.90;;;7.86;100.00;101005.41;6098834;23;20544;-84
2021/10/17 07:01:30;;;;;;;15.05;7.75;;;6.80;99.90;;;7.89;100.00;101006.69;6099055;23;20408;-82
2021/10/17 07:03:56;;;;;;;13.00;6.75;;;6.90;99.90;;;7.93;100.00;101004.84;6100701;23;20011;-84
2021/10/17 07:06:22;;;;;;;16.42;7.65;;;6.90;99.90;;;8.00;100.00;101009.91;6097801;23;20057;-83
2021/10/17 07:08:48;;;;;;;15.90;6.53;;;7.00;99.90;;;8.00;100.00;101015.47;6074530;23;20396;-83
2021/10/17 07:11:14;;;;;;;14.20;7.13;;;7.00;99.90;;;8.11;100.00;101017.56;6100459;23;20024;-85
2021/10/17 07:13:40;;;;;;;12.35;6.85;;;7.10;99.90;;;8.15;100.00;101024.13;6074305;23;20301;-82
2021/10/17 07:16:07;;;;;;;12.02;6.70;;;7.10;99.90;;;8.18;100.00;101017.88;6075707;23;20452;-83
2021/10/17 07:18:33;;;;;;;14.95;6.40;;;7.10;99.90;;;8.18;100.00;101025.41;6101043;23;20034;-83
2021/10/17 07:20:59;;;;;;;15.80;7.18;;;7.20;99.90;;;8.21;100.00;101022.78;6100046;23;20010;-82
2021/10/17 07:23:25;;;;;;;17.40;7.38;;;7.20;99.90;;;8.17;100.00;101021.00;6100267;23;20018;-84
2021/10/17 07:25:50;;;;;;;14.80;7.18;;;7.20;99.90;;;8.23;100.00;101022.44;6075077;23;20011;-83
2021/10/17 07:28:18;;;;;;;17.27;8.23;;;7.20;99.90;;;8.34;99.57;101030.13;6100734;23;20027;-84
2021/10/17 07:30:43;;;;;;;12.73;6.70;;;7.30;99.90;;;8.31;99.72;101033.59;6075037;23;20094;-81
2021/10/17 07:33:09;;;;;;;16.38;7.20;;;7.30;99.90;;;8.37;99.88;101037.81;6075178;23;20021;-84
2021/10/17 07:35:35;;;;;;;9.60;6.38;;;7.30;99.90;;;8.40;99.92;101041.88;6099021;23;20014;-83
2021/10/17 07:38:01;;;;;;;15.45;6.28;;;7.30;99.90;;;8.39;98.65;101027.16;6101471;23;20078;-88
2021/10/17 07:40:28;;;;;;;19.75;6.57;;;7.40;99.90;;;8.54;96.69;101034.09;6100054;23;20381;-82
2021/10/17 07:42:54;;;;;;;14.00;7.15;;;7.40;99.90;;;8.64;95.89;101036.50;6075593;23;20049;-87
2021/10/17 07:45:20;;;;;;;10.00;5.95;;;7.50;99.90;;;8.72;96.74;101041.22;6075283;23;20006;-84
2021/10/17 07:47:46;;;;;;;13.52;6.15;;;7.60;99.90;;;8.85;96.48;101034.59;6075214;23;20006;-87
2021/10/17 07:50:11;;;;;;;11.27;5.75;;;7.70;99.90;;;8.97;96.57;101045.00;6074673;23;20038;-86
2021/10/17 07:52:38;;;;;;;13.75;6.78;;;7.80;99.90;;;9.00;96.32;101039.56;6075326;23;20029;-82
2021/10/17 07:55:08;;;;;;;10.73;5.85;;;7.80;99.90;;;9.14;96.21;101041.28;6075033;23;20011;-87
2021/10/17 07:57:53;;;;;;;15.65;6.18;;;7.90;99.90;;;9.25;95.77;101048.91;6098865;23;20045;-84
2021/10/17 08:00:24;;;;;;;8.63;4.45;;;8.00;99.90;;;9.35;96.28;101048.50;6052212;23;20010;-85
2021/10/17 08:02:50;;;;;;;9.98;5.55;;;8.10;99.90;;;9.43;95.92;101044.00;6075808;23;20015;-87
2021/10/17 08:05:17;;;;;;;14.65;5.68;;;8.20;99.90;;;9.51;95.47;101040.31;6074743;23;20010;-86
2021/10/17 08:07:43;;;;;;;15.02;5.18;;;8.30;99.90;;;9.58;95.68;101039.78;6100035;23;20018;-86
2021/10/17 08:10:11;;;;;;;10.70;6.03;;;8.30;99.90;;;9.69;95.57;101041.00;6099115;23;20117;-86
2021/10/17 08:12:38;;;;;;;15.07;5.20;;;8.40;99.90;;;9.80;95.36;101039.38;6099271;23;20016;-82
2021/10/17 08:15:08;;;;;;;17.17;6.00;;;8.50;99.90;;;9.89;95.00;101035.34;6073973;23;20014;-84
2021/10/17 08:17:35;;;;;;;10.48;5.07;;;8.60;99.90;;;9.95;93.61;101041.56;6051297;23;20038;-87
2021/10/17 08:20:05;;;;;;;11.85;5.63;;;8.60;99.90;;;9.89;92.95;101040.94;6100201;23;20050;-88
2021/10/17 08:22:32;;;;;;;13.98;6.30;;;8.70;99.90;;;10.03;93.46;101047.03;6052338;23;20011;-84
2021/10/17 08:24:58;;;;;;;15.88;6.95;;;8.70;99.90;;;9.87;92.88;101048.84;6075390;23;20384;-86
2021/10/17 08:27:24;;;;;;;8.82;6.05;;;8.70;99.90;;;9.97;92.70;101047.59;6099706;23;20007;-86
2021/10/17 08:29:50;;;;;;;12.10;5.72;;;8.70;99.90;;;10.01;92.32;101040.16;6099513;23;20009;-86
2021/10/17 08:32:18;;;;;;;11.82;5.43;;;8.80;99.90;;;10.12;91.98;101046.94;6051182;23;20340;-85
2021/10/17 08:34:44;;;;;;;11.93;5.68;;;8.80;99.90;;;10.20;91.75;101054.44;6100741;23;20015;-86
2021/10/17 08:37:11;;;;;;;7.60;5.10;;;8.90;99.90;;;10.32;92.02;101053.63;6075537;23;20012;-84
2021/10/17 08:39:39;;;;;;;12.90;5.65;;;9.00;99.90;;;10.32;90.95;101057.25;6075629;23;20010;-87
2021/10/17 08:42:05;;;;;;;11.43;6.03;;;9.00;99.90;;;10.25;90.99;101059.78;6100564;23;20057;-87
2021/10/17 08:44:31;;;;;;;16.33;6.63;;;9.00;99.90;;;10.32;90.98;101070.38;6077124;23;20003;-88
2021/10/17 08:47:00;;;;;;;11.32;5.95;;;9.10;99.90;;;10.41;90.53;101066.31;6100490;23;20010;-86
2021/10/17 08:49:28;;;;;;;8.55;5.25;;;9.10;99.90;;;10.58;90.78;101070.88;6100736;23;20064;-85
2021/10/17 08:51:54;;;;;;;12.38;5.68;;;9.20;99.90;;;10.65;89.67;101065.53;6076612;23;20097;-86
2021/10/17 08:54:20;;;;;;;13.48;6.07;;;9.30;99.90;;;10.75;89.24;101072.66;6076191;23;20013;-85
2021/10/17 08:56:47;;;;;;;11.80;5.78;;;9.40;99.90;;;10.82;89.38;101061.72;6100036;23;20010;-88
2021/10/17 08:59:13;;;;;;;18.38;7.28;;;9.50;99.90;;;10.84;90.21;101059.38;6113378;23;20007;-84
2021/10/17 09:01:39;;;;;;;11.65;5.57;;;9.50;99.90;;;10.91;89.72;101063.22;6115355;23;20017;-83
2021/10/17 09:04:07;;;;;;;15.15;5.70;;;9.60;99.90;;;10.97;90.32;101059.00;6088066;23;20007;-85
2021/10/17 09:06:38;;;;;;;10.60;5.78;;;9.70;99.90;;;10.91;89.26;101054.00;6066828;23;20029;-86
2021/10/17 09:09:18;;;;;;;10.13;6.05;;;9.70;99.90;;;11.06;88.71;101065.28;6115022;23;20022;-88
2021/10/17 09:11:58;;;;;;;10.75;5.38;;;9.80;99.90;;;11.13;86.92;101055.50;6067410;23;20062;-86
2021/10/17 09:14:27;;;;;;;14.27;5.78;;;9.90;99.90;;;11.29;86.60;101051.63;6118437;23;19998;-84
2021/10/17 09:16:59;;;;;;;13.73;5.85;;;10.00;99.90;;;11.42;87.73;101052.41;6106002;23;20073;-84
2021/10/17 09:19:32;;;;;;;12.35;5.90;;;10.10;99.90;;;11.45;86.47;101052.50;6054945;23;20038;-85
2021/10/17 09:22:12;;;;;;;11.90;5.72;;;10.20;99.90;;;11.52;85.17;101051.91;6055070;23;20433;-86
2021/10/17 09:24:47;;;;;;;10.73;5.20;;;10.20;99.90;;;11.53;84.43;101053.50;6077575;23;20013;-85
2021/10/17 09:27:23;;;;;;;12.43;5.38;;;10.30;99.90;;;11.66;84.47;101046.72;6101283;23;20420;-88
2021/10/17 09:29:54;;;;;;;11.38;5.45;;;10.40;99.90;;;11.81;84.03;101047.97;6103409;23;20348;-83
2021/10/17 09:32:28;;;;;;;11.45;5.45;;;10.40;99.90;;;11.97;83.87;101043.22;6053381;23;20010;-86
2021/10/17 09:35:05;;;;;;;9.75;5.30;;;10.60;99.90;;;12.06;83.14;101046.69;6102511;23;20006;-84
2021/10/17 09:37:38;;;;;;;12.70;5.65;;;10.70;99.90;;;12.07;82.90;101045.50;6078013;23;20002;-86
2021/10/17 09:40:23;;;;;;;13.75;5.15;;;10.70;99.90;;;11.92;83.78;101044.28;6076648;23;20007;-88
2021/10/17 09:43:24;;;;;;;9.68;5.47;;;10.70;99.90;;;11.93;83.78;101047.91;6079666;23;20010;-87
2021/10/17 09:46:14;;;;;;;15.25;5.65;;;10.70;99.90;;;12.00;83.46;101046.13;6101687;23;20007;-85
2021/10/17 09:48:43;;;;;;;12.45;5.35;;;10.80;99.90;;;12.10;83.01;101037.19;6077612;23;20034;-85
2021/10/17 09:51:26;;;;;;;12.02;5.32;;;10.90;99.90;;;12.24;81.07;101039.56;6101645;23;20021;-85
2021/10/17 09:53:59;;;;;;;12.25;4.70;;;11.00;99.90;;;12.53;81.90;101043.91;6077207;23;20014;-84
2021/10/17 09:56:40;;;;;;;10.52;5.05;;;11.10;99.90;;;12.61;79.24;101042.91;6077068;23;20017;-86
2021/10/17 09:59:10;;;;;;;12.77;5.28;;;11.20;99.90;;;12.55;78.95;101039.56;6078152;23;20409;-86
2021/10/17 10:01:40;;;;;;;10.32;5.50;;;11.30;99.90;;;12.78;78.88;101039.72;6077195;23;20014;-86
2021/10/17 10:04:12;;;;;;;12.07;4.82;;;11.40;99.90;;;12.82;79.13;101043.44;6030906;23;20098;-83
2021/10/17 10:06:38;;;;;;;10.65;4.47;;;11.50;99.90;;;12.89;77.74;101040.81;6007462;23;20021;-85
2021/10/17 10:09:10;;;;;;;9.45;4.50;;;11.70;99.90;;;13.07;77.31;101036.41;6099739;23;20010;-81
2021/10/17 10:11:39;;;;;;;14.88;4.93;;;11.80;99.90;;;13.09;75.21;101044.50;6102163;23;20010;-87
2021/10/17 10:14:09;;;;;;;14.02;4.90;;;11.90;99.90;;;13.26;75.58;101044.06;6029653;23;20101;-87
2021/10/17 10:16:36;;;;;;;11.77;4.32;;;12.00;99.90;;;13.45;73.54;101040.50;6077006;23;20016;-86